sensor_id;sensor_type;location;lat;lon;timestamp;P1;durP1;ratioP1;P2;durP2;ratioP2
24801;SDS011;12898;50.520;12.152;2022-12-07T00:01:28;15.53;;;7.10;;
24801;SDS011;12898;50.520;12.152;2022-12-07T00:03:58;12.73;;;6.90;;
24801;SDS011;12898;50.520;12.152;2022-12-07T00:06:30;14.23;;;7.10;;
24801;SDS011;12898;50.520;12.152;2022-12-07T00:09:00;12.80;;;7.10;;
24801;SDS011;12898;50.520;12.152;2022-12-07T00:11:26;13.07;;;6.93;;
24801;SDS011;12898;50.520;12.152;2022-12-07T00:13:53;12.93;;;7.27;;
24801;SDS011;12898;50.520;12.152;2022-12-07T00:16:22;14.30;;;7.33;;
24801;SDS011;12898;50.520;12.152;2022-12-07T00:18:50;12.13;;;6.37;;
24801;SDS011;12898;50.520;12.152;2022-12-07T00:21:17;12.17;;;5.80;;
24801;SDS011;12898;50.520;12.152;2022-12-07T00:23:54;9.37;;;5.03;;
24801;SDS011;12898;50.520;12.152;2022-12-07T00:26:22;9.10;;;4.60;;
24801;SDS011;12898;50.520;12.152;2022-12-07T00:28:54;9.93;;;5.00;;
24801;SDS011;12898;50.520;12.152;2022-12-07T00:31:23;9.13;;;4.40;;
24801;SDS011;12898;50.520;12.152;2022-12-07T00:33:51;8.90;;;4.50;;
24801;SDS011;12898;50.520;12.152;2022-12-07T00:36:18;10.87;;;4.27;;
24801;SDS011;12898;50.520;12.152;2022-12-07T00:38:47;8.60;;;4.10;;
24801;SDS011;12898;50.520;12.152;2022-12-07T00:41:16;8.97;;;4.70;;
24801;SDS011;12898;50.520;12.152;2022-12-07T00:43:46;10.90;;;4.60;;
24801;SDS011;12898;50.520;12.152;2022-12-07T00:46:13;9.43;;;4.50;;
24801;SDS011;12898;50.520;12.152;2022-12-07T00:48:40;7.10;;;4.03;;
24801;SDS011;12898;50.520;12.152;2022-12-07T00:51:06;8.47;;;4.27;;
24801;SDS011;12898;50.520;12.152;2022-12-07T00:53:34;7.07;;;3.90;;
24801;SDS011;12898;50.520;12.152;2022-12-07T00:56:34;9.37;;;4.30;;
24801;SDS011;12898;50.520;12.152;2022-12-07T00:59:00;8.20;;;3.53;;
24801;SDS011;12898;50.520;12.152;2022-12-07T01:01:28;10.87;;;4.57;;
24801;SDS011;12898;50.520;12.152;2022-12-07T01:03:57;8.03;;;3.93;;
24801;SDS011;12898;50.520;12.152;2022-12-07T01:06:23;8.70;;;4.30;;
24801;SDS011;12898;50.520;12.152;2022-12-07T01:08:50;8.27;;;4.07;;
24801;SDS011;12898;50.520;12.152;2022-12-07T01:11:18;7.77;;;4.00;;
24801;SDS011;12898;50.520;12.152;2022-12-07T01:13:46;7.20;;;3.47;;
24801;SDS011;12898;50.520;12.152;2022-12-07T01:16:15;8.00;;;3.80;;
24801;SDS011;12898;50.520;12.152;2022-12-07T01:18:42;7.77;;;3.30;;
24801;SDS011;12898;50.520;12.152;2022-12-07T01:21:13;8.40;;;3.80;;
24801;SDS011;12898;50.520;12.152;2022-12-07T01:23:48;8.27;;;3.80;;
24801;SDS011;12898;50.520;12.152;2022-12-07T01:26:15;6.20;;;3.30;;
24801;SDS011;12898;50.520;12.152;2022-12-07T01:28:45;7.53;;;3.53;;
24801;SDS011;12898;50.520;12.152;2022-12-07T01:31:16;5.93;;;3.50;;
24801;SDS011;12898;50.520;12.152;2022-12-07T01:33:45;6.53;;;3.17;;
24801;SDS011;12898;50.520;12.152;2022-12-07T01:36:17;7.33;;;3.80;;
24801;SDS011;12898;50.520;12.152;2022-12-07T01:38:52;8.53;;;3.57;;
24801;SDS011;12898;50.520;12.152;2022-12-07T01:41:22;8.80;;;3.70;;
24801;SDS011;12898;50.520;12.152;2022-12-07T01:52:10;7.07;;;3.40;;
24801;SDS011;12898;50.520;12.152;2022-12-07T01:54:49;6.43;;;3.30;;
24801;SDS011;12898;50.520;12.152;2022-12-07T01:57:19;7.57;;;3.70;;
24801;SDS011;12898;50.520;12.152;2022-12-07T01:59:45;8.17;;;4.20;;
24801;SDS011;12898;50.520;12.152;2022-12-07T02:02:22;8.77;;;4.23;;
24801;SDS011;12898;50.520;12.152;2022-12-07T02:04:56;7.97;;;4.10;;
24801;SDS011;12898;50.520;12.152;2022-12-07T02:07:24;9.00;;;4.20;;
24801;SDS011;12898;50.520;12.152;2022-12-07T02:09:52;10.90;;;4.80;;
24801;SDS011;12898;50.520;12.152;2022-12-07T02:12:17;9.47;;;4.33;;
24801;SDS011;12898;50.520;12.152;2022-12-07T02:14:44;9.27;;;4.47;;
24801;SDS011;12898;50.520;12.152;2022-12-07T02:17:25;7.27;;;4.10;;
24801;SDS011;12898;50.520;12.152;2022-12-07T02:23:04;8.57;;;4.23;;
24801;SDS011;12898;50.520;12.152;2022-12-07T02:26:19;8.07;;;4.20;;
24801;SDS011;12898;50.520;12.152;2022-12-07T02:32:09;8.30;;;4.43;;
24801;SDS011;12898;50.520;12.152;2022-12-07T02:40:06;9.87;;;4.70;;
24801;SDS011;12898;50.520;12.152;2022-12-07T02:42:50;9.53;;;4.63;;
24801;SDS011;12898;50.520;12.152;2022-12-07T02:45:21;7.50;;;4.03;;
24801;SDS011;12898;50.520;12.152;2022-12-07T02:47:51;8.53;;;4.27;;
24801;SDS011;12898;50.520;12.152;2022-12-07T02:50:20;10.77;;;4.47;;
24801;SDS011;12898;50.520;12.152;2022-12-07T02:52:46;10.97;;;4.53;;
24801;SDS011;12898;50.520;12.152;2022-12-07T02:55:12;9.27;;;4.60;;
24801;SDS011;12898;50.520;12.152;2022-12-07T02:57:51;9.70;;;4.70;;
24801;SDS011;12898;50.520;12.152;2022-12-07T03:00:52;9.47;;;4.57;;
24801;SDS011;12898;50.520;12.152;2022-12-07T03:03:39;9.97;;;5.20;;
24801;SDS011;12898;50.520;12.152;2022-12-07T03:11:48;12.87;;;5.40;;
24801;SDS011;12898;50.520;12.152;2022-12-07T03:14:23;11.43;;;5.63;;
24801;SDS011;12898;50.520;12.152;2022-12-07T03:19:42;12.40;;;6.80;;
24801;SDS011;12898;50.520;12.152;2022-12-07T03:22:11;13.40;;;7.00;;
24801;SDS011;12898;50.520;12.152;2022-12-07T03:24:43;12.70;;;6.80;;
24801;SDS011;12898;50.520;12.152;2022-12-07T03:27:19;13.23;;;6.73;;
24801;SDS011;12898;50.520;12.152;2022-12-07T03:30:12;13.00;;;6.47;;
24801;SDS011;12898;50.520;12.152;2022-12-07T03:32:48;11.23;;;6.20;;
24801;SDS011;12898;50.520;12.152;2022-12-07T03:35:49;11.30;;;5.63;;
24801;SDS011;12898;50.520;12.152;2022-12-07T03:38:31;11.00;;;5.80;;
24801;SDS011;12898;50.520;12.152;2022-12-07T03:41:18;12.30;;;6.07;;
24801;SDS011;12898;50.520;12.152;2022-12-07T03:43:50;14.23;;;6.57;;
24801;SDS011;12898;50.520;12.152;2022-12-07T03:51:59;14.60;;;7.30;;
24801;SDS011;12898;50.520;12.152;2022-12-07T03:54:34;11.73;;;6.30;;
24801;SDS011;12898;50.520;12.152;2022-12-07T03:57:11;12.83;;;6.47;;
24801;SDS011;12898;50.520;12.152;2022-12-07T03:59:37;13.40;;;6.90;;
24801;SDS011;12898;50.520;12.152;2022-12-07T04:02:05;13.43;;;7.37;;
24801;SDS011;12898;50.520;12.152;2022-12-07T04:04:32;15.77;;;7.70;;
24801;SDS011;12898;50.520;12.152;2022-12-07T04:06:59;14.50;;;7.07;;
24801;SDS011;12898;50.520;12.152;2022-12-07T04:09:25;13.53;;;7.10;;
24801;SDS011;12898;50.520;12.152;2022-12-07T04:11:51;11.70;;;6.47;;
24801;SDS011;12898;50.520;12.152;2022-12-07T04:14:16;16.33;;;7.07;;
24801;SDS011;12898;50.520;12.152;2022-12-07T04:16:52;13.30;;;6.17;;
24801;SDS011;12898;50.520;12.152;2022-12-07T04:19:22;12.60;;;6.70;;
24801;SDS011;12898;50.520;12.152;2022-12-07T04:21:51;13.47;;;5.97;;
24801;SDS011;12898;50.520;12.152;2022-12-07T04:24:17;13.50;;;6.53;;
24801;SDS011;12898;50.520;12.152;2022-12-07T04:26:45;12.10;;;6.33;;
24801;SDS011;12898;50.520;12.152;2022-12-07T04:29:12;10.93;;;5.93;;
24801;SDS011;12898;50.520;12.152;2022-12-07T04:31:39;14.00;;;7.33;;
24801;SDS011;12898;50.520;12.152;2022-12-07T04:34:05;13.23;;;7.60;;
24801;SDS011;12898;50.520;12.152;2022-12-07T04:36:31;14.10;;;7.97;;
24801;SDS011;12898;50.520;12.152;2022-12-07T04:38:57;13.30;;;7.07;;
24801;SDS011;12898;50.520;12.152;2022-12-07T04:41:23;13.33;;;7.10;;
24801;SDS011;12898;50.520;12.152;2022-12-07T04:43:53;14.33;;;7.90;;
24801;SDS011;12898;50.520;12.152;2022-12-07T04:46:20;13.40;;;7.43;;
24801;SDS011;12898;50.520;12.152;2022-12-07T04:48:46;15.20;;;7.97;;
24801;SDS011;12898;50.520;12.152;2022-12-07T04:51:11;13.57;;;7.57;;
24801;SDS011;12898;50.520;12.152;2022-12-07T04:53:38;14.47;;;7.73;;
24801;SDS011;12898;50.520;12.152;2022-12-07T04:56:04;14.23;;;7.83;;
24801;SDS011;12898;50.520;12.152;2022-12-07T04:58:30;16.27;;;8.73;;
24801;SDS011;12898;50.520;12.152;2022-12-07T05:00:55;18.27;;;9.27;;
24801;SDS011;12898;50.520;12.152;2022-12-07T05:03:21;14.57;;;7.40;;
24801;SDS011;12898;50.520;12.152;2022-12-07T05:05:47;15.07;;;7.67;;
24801;SDS011;12898;50.520;12.152;2022-12-07T05:08:13;13.93;;;7.87;;
24801;SDS011;12898;50.520;12.152;2022-12-07T05:10:38;15.10;;;7.97;;
24801;SDS011;12898;50.520;12.152;2022-12-07T05:13:04;16.40;;;8.37;;
24801;SDS011;12898;50.520;12.152;2022-12-07T05:15:29;14.87;;;8.10;;
24801;SDS011;12898;50.520;12.152;2022-12-07T05:17:55;15.43;;;8.73;;
24801;SDS011;12898;50.520;12.152;2022-12-07T05:20:21;15.37;;;8.53;;
24801;SDS011;12898;50.520;12.152;2022-12-07T05:22:46;16.13;;;8.63;;
24801;SDS011;12898;50.520;12.152;2022-12-07T05:25:12;15.80;;;9.00;;
24801;SDS011;12898;50.520;12.152;2022-12-07T05:27:38;15.57;;;8.57;;
24801;SDS011;12898;50.520;12.152;2022-12-07T05:30:04;15.57;;;8.53;;
24801;SDS011;12898;50.520;12.152;2022-12-07T05:32:30;15.90;;;9.00;;
24801;SDS011;12898;50.520;12.152;2022-12-07T05:34:57;16.33;;;9.20;;
24801;SDS011;12898;50.520;12.152;2022-12-07T05:37:23;15.63;;;9.47;;
24801;SDS011;12898;50.520;12.152;2022-12-07T05:39:48;15.50;;;8.97;;
24801;SDS011;12898;50.520;12.152;2022-12-07T05:42:14;14.87;;;9.10;;
24801;SDS011;12898;50.520;12.152;2022-12-07T05:44:40;17.43;;;9.77;;
24801;SDS011;12898;50.520;12.152;2022-12-07T05:47:09;16.60;;;9.57;;
24801;SDS011;12898;50.520;12.152;2022-12-07T05:49:38;16.77;;;9.50;;
24801;SDS011;12898;50.520;12.152;2022-12-07T05:52:04;17.30;;;9.50;;
24801;SDS011;12898;50.520;12.152;2022-12-07T05:54:30;17.53;;;10.00;;
24801;SDS011;12898;50.520;12.152;2022-12-07T05:56:55;15.70;;;9.00;;
24801;SDS011;12898;50.520;12.152;2022-12-07T05:59:22;17.30;;;9.77;;
24801;SDS011;12898;50.520;12.152;2022-12-07T06:01:49;16.97;;;9.17;;
24801;SDS011;12898;50.520;12.152;2022-12-07T06:04:16;17.00;;;8.60;;
24801;SDS011;12898;50.520;12.152;2022-12-07T06:06:43;15.73;;;9.40;;
24801;SDS011;12898;50.520;12.152;2022-12-07T06:09:09;15.93;;;8.97;;
24801;SDS011;12898;50.520;12.152;2022-12-07T06:11:35;16.40;;;9.17;;
24801;SDS011;12898;50.520;12.152;2022-12-07T06:14:19;17.33;;;9.13;;
24801;SDS011;12898;50.520;12.152;2022-12-07T06:16:45;15.83;;;8.83;;
24801;SDS011;12898;50.520;12.152;2022-12-07T06:19:10;15.97;;;8.73;;
24801;SDS011;12898;50.520;12.152;2022-12-07T06:21:36;15.47;;;8.23;;
24801;SDS011;12898;50.520;12.152;2022-12-07T06:24:02;14.20;;;8.20;;
24801;SDS011;12898;50.520;12.152;2022-12-07T06:26:27;16.03;;;8.80;;
24801;SDS011;12898;50.520;12.152;2022-12-07T06:28:53;14.90;;;7.97;;
24801;SDS011;12898;50.520;12.152;2022-12-07T06:31:19;13.80;;;7.73;;
24801;SDS011;12898;50.520;12.152;2022-12-07T06:33:45;14.37;;;7.97;;
24801;SDS011;12898;50.520;12.152;2022-12-07T06:36:11;15.67;;;8.17;;
24801;SDS011;12898;50.520;12.152;2022-12-07T06:38:36;13.83;;;7.83;;
24801;SDS011;12898;50.520;12.152;2022-12-07T06:41:02;14.37;;;8.10;;
24801;SDS011;12898;50.520;12.152;2022-12-07T06:43:29;13.93;;;8.10;;
24801;SDS011;12898;50.520;12.152;2022-12-07T06:45:54;15.77;;;8.63;;
24801;SDS011;12898;50.520;12.152;2022-12-07T06:48:20;15.80;;;8.10;;
24801;SDS011;12898;50.520;12.152;2022-12-07T06:50:46;17.63;;;8.77;;
24801;SDS011;12898;50.520;12.152;2022-12-07T06:53:13;15.67;;;9.17;;
24801;SDS011;12898;50.520;12.152;2022-12-07T06:55:39;14.23;;;8.27;;
24801;SDS011;12898;50.520;12.152;2022-12-07T06:58:04;17.87;;;9.27;;
24801;SDS011;12898;50.520;12.152;2022-12-07T07:00:30;15.37;;;8.90;;
24801;SDS011;12898;50.520;12.152;2022-12-07T07:02:56;15.63;;;9.07;;
24801;SDS011;12898;50.520;12.152;2022-12-07T07:05:21;15.03;;;8.60;;
24801;SDS011;12898;50.520;12.152;2022-12-07T07:07:48;15.20;;;8.67;;
24801;SDS011;12898;50.520;12.152;2022-12-07T07:10:14;16.20;;;9.03;;
24801;SDS011;12898;50.520;12.152;2022-12-07T07:12:40;13.40;;;8.20;;
24801;SDS011;12898;50.520;12.152;2022-12-07T07:15:06;14.77;;;8.30;;
24801;SDS011;12898;50.520;12.152;2022-12-07T07:17:32;14.77;;;8.80;;
24801;SDS011;12898;50.520;12.152;2022-12-07T07:19:57;14.60;;;8.57;;
24801;SDS011;12898;50.520;12.152;2022-12-07T07:22:23;17.20;;;8.73;;
24801;SDS011;12898;50.520;12.152;2022-12-07T07:24:49;15.70;;;9.10;;
24801;SDS011;12898;50.520;12.152;2022-12-07T07:27:14;14.37;;;8.47;;
24801;SDS011;12898;50.520;12.152;2022-12-07T07:29:40;15.27;;;8.80;;
24801;SDS011;12898;50.520;12.152;2022-12-07T07:32:06;15.47;;;8.80;;
24801;SDS011;12898;50.520;12.152;2022-12-07T07:34:32;15.10;;;8.67;;
24801;SDS011;12898;50.520;12.152;2022-12-07T07:36:58;14.07;;;8.17;;
24801;SDS011;12898;50.520;12.152;2022-12-07T07:39:24;14.27;;;8.03;;
24801;SDS011;12898;50.520;12.152;2022-12-07T07:41:49;17.20;;;9.63;;
24801;SDS011;12898;50.520;12.152;2022-12-07T07:44:15;14.60;;;8.30;;
24801;SDS011;12898;50.520;12.152;2022-12-07T07:46:41;14.63;;;8.03;;
24801;SDS011;12898;50.520;12.152;2022-12-07T07:49:06;14.87;;;8.33;;
24801;SDS011;12898;50.520;12.152;2022-12-07T07:51:35;14.30;;;8.03;;
24801;SDS011;12898;50.520;12.152;2022-12-07T07:54:00;13.73;;;7.83;;
24801;SDS011;12898;50.520;12.152;2022-12-07T07:56:26;14.20;;;8.37;;
24801;SDS011;12898;50.520;12.152;2022-12-07T07:58:52;15.10;;;8.40;;
24801;SDS011;12898;50.520;12.152;2022-12-07T08:01:18;15.30;;;7.93;;
24801;SDS011;12898;50.520;12.152;2022-12-07T08:03:44;14.30;;;7.73;;
24801;SDS011;12898;50.520;12.152;2022-12-07T08:06:12;15.27;;;8.40;;
24801;SDS011;12898;50.520;12.152;2022-12-07T08:08:37;12.60;;;7.23;;
24801;SDS011;12898;50.520;12.152;2022-12-07T08:11:06;12.53;;;6.57;;
24801;SDS011;12898;50.520;12.152;2022-12-07T08:13:33;17.10;;;7.87;;
24801;SDS011;12898;50.520;12.152;2022-12-07T08:16:03;13.30;;;7.30;;
24801;SDS011;12898;50.520;12.152;2022-12-07T08:18:30;12.93;;;7.33;;
24801;SDS011;12898;50.520;12.152;2022-12-07T08:21:00;13.60;;;7.20;;
24801;SDS011;12898;50.520;12.152;2022-12-07T08:23:26;13.27;;;7.23;;
24801;SDS011;12898;50.520;12.152;2022-12-07T08:25:52;13.83;;;7.53;;
24801;SDS011;12898;50.520;12.152;2022-12-07T08:28:18;14.07;;;7.50;;
24801;SDS011;12898;50.520;12.152;2022-12-07T08:30:43;13.80;;;7.50;;
24801;SDS011;12898;50.520;12.152;2022-12-07T08:33:09;14.63;;;7.67;;
24801;SDS011;12898;50.520;12.152;2022-12-07T08:35:36;17.33;;;7.40;;
24801;SDS011;12898;50.520;12.152;2022-12-07T08:38:02;16.10;;;7.63;;
24801;SDS011;12898;50.520;12.152;2022-12-07T08:40:28;16.40;;;7.93;;
24801;SDS011;12898;50.520;12.152;2022-12-07T08:42:55;17.70;;;8.47;;
24801;SDS011;12898;50.520;12.152;2022-12-07T08:45:21;15.23;;;8.00;;
24801;SDS011;12898;50.520;12.152;2022-12-07T08:47:49;14.40;;;7.80;;
24801;SDS011;12898;50.520;12.152;2022-12-07T08:50:18;13.53;;;7.17;;
24801;SDS011;12898;50.520;12.152;2022-12-07T08:52:44;13.90;;;6.87;;
24801;SDS011;12898;50.520;12.152;2022-12-07T08:55:16;13.03;;;7.20;;
24801;SDS011;12898;50.520;12.152;2022-12-07T08:57:42;13.93;;;7.73;;
24801;SDS011;12898;50.520;12.152;2022-12-07T09:00:08;13.53;;;7.80;;
24801;SDS011;12898;50.520;12.152;2022-12-07T09:02:34;14.67;;;8.13;;
24801;SDS011;12898;50.520;12.152;2022-12-07T09:05:00;15.47;;;8.43;;
24801;SDS011;12898;50.520;12.152;2022-12-07T09:07:26;15.10;;;7.87;;
24801;SDS011;12898;50.520;12.152;2022-12-07T09:09:52;15.87;;;8.57;;
24801;SDS011;12898;50.520;12.152;2022-12-07T09:12:18;14.40;;;8.07;;
24801;SDS011;12898;50.520;12.152;2022-12-07T09:14:44;15.73;;;8.50;;
24801;SDS011;12898;50.520;12.152;2022-12-07T09:17:10;16.43;;;8.50;;
24801;SDS011;12898;50.520;12.152;2022-12-07T09:19:37;15.53;;;8.03;;
24801;SDS011;12898;50.520;12.152;2022-12-07T09:22:04;15.80;;;7.47;;
24801;SDS011;12898;50.520;12.152;2022-12-07T09:24:30;14.40;;;7.90;;
24801;SDS011;12898;50.520;12.152;2022-12-07T09:26:57;13.77;;;7.67;;
24801;SDS011;12898;50.520;12.152;2022-12-07T09:29:23;13.43;;;7.27;;
24801;SDS011;12898;50.520;12.152;2022-12-07T09:31:49;14.40;;;7.37;;
24801;SDS011;12898;50.520;12.152;2022-12-07T09:34:16;14.23;;;6.63;;
24801;SDS011;12898;50.520;12.152;2022-12-07T09:36:42;13.57;;;7.00;;
24801;SDS011;12898;50.520;12.152;2022-12-07T09:39:08;14.33;;;7.30;;
24801;SDS011;12898;50.520;12.152;2022-12-07T09:41:34;12.60;;;7.07;;
24801;SDS011;12898;50.520;12.152;2022-12-07T09:44:14;13.47;;;7.10;;
24801;SDS011;12898;50.520;12.152;2022-12-07T09:46:49;12.77;;;7.10;;
24801;SDS011;12898;50.520;12.152;2022-12-07T09:49:25;10.03;;;5.67;;
24801;SDS011;12898;50.520;12.152;2022-12-07T09:52:03;11.83;;;6.80;;
24801;SDS011;12898;50.520;12.152;2022-12-07T09:54:33;11.40;;;5.70;;
24801;SDS011;12898;50.520;12.152;2022-12-07T09:57:02;11.10;;;6.27;;
24801;SDS011;12898;50.520;12.152;2022-12-07T09:59:28;10.83;;;5.87;;
24801;SDS011;12898;50.520;12.152;2022-12-07T10:01:54;10.43;;;5.47;;
24801;SDS011;12898;50.520;12.152;2022-12-07T10:04:21;9.73;;;5.53;;
24801;SDS011;12898;50.520;12.152;2022-12-07T10:06:49;9.67;;;5.20;;
24801;SDS011;12898;50.520;12.152;2022-12-07T10:09:19;9.83;;;5.47;;
24801;SDS011;12898;50.520;12.152;2022-12-07T10:14:31;9.40;;;4.83;;
24801;SDS011;12898;50.520;12.152;2022-12-07T10:17:01;7.97;;;4.27;;
24801;SDS011;12898;50.520;12.152;2022-12-07T10:19:31;10.03;;;4.67;;
24801;SDS011;12898;50.520;12.152;2022-12-07T10:24:41;9.87;;;4.20;;
24801;SDS011;12898;50.520;12.152;2022-12-07T10:27:30;7.57;;;4.13;;
24801;SDS011;12898;50.520;12.152;2022-12-07T10:29:57;6.37;;;3.80;;
24801;SDS011;12898;50.520;12.152;2022-12-07T10:32:34;9.47;;;4.40;;
24801;SDS011;12898;50.520;12.152;2022-12-07T10:37:54;7.33;;;3.63;;
24801;SDS011;12898;50.520;12.152;2022-12-07T10:40:27;9.63;;;4.10;;
24801;SDS011;12898;50.520;12.152;2022-12-07T10:45:44;5.17;;;2.90;;
24801;SDS011;12898;50.520;12.152;2022-12-07T10:48:50;7.77;;;4.03;;
24801;SDS011;12898;50.520;12.152;2022-12-07T10:51:40;6.03;;;3.00;;
24801;SDS011;12898;50.520;12.152;2022-12-07T10:54:30;5.60;;;3.13;;
24801;SDS011;12898;50.520;12.152;2022-12-07T11:00:36;6.63;;;3.37;;
24801;SDS011;12898;50.520;12.152;2022-12-07T11:06:36;5.13;;;2.87;;
24801;SDS011;12898;50.520;12.152;2022-12-07T11:18:27;4.53;;;2.73;;
24801;SDS011;12898;50.520;12.152;2022-12-07T11:27:30;4.03;;;2.40;;
24801;SDS011;12898;50.520;12.152;2022-12-07T11:36:00;3.70;;;2.33;;
24801;SDS011;12898;50.520;12.152;2022-12-07T11:41:46;4.57;;;2.23;;
24801;SDS011;12898;50.520;12.152;2022-12-07T11:44:26;4.50;;;2.33;;
24801;SDS011;12898;50.520;12.152;2022-12-07T11:47:34;4.63;;;2.30;;
24801;SDS011;12898;50.520;12.152;2022-12-07T11:50:25;5.33;;;2.30;;
24801;SDS011;12898;50.520;12.152;2022-12-07T12:01:14;4.70;;;2.50;;
24801;SDS011;12898;50.520;12.152;2022-12-07T12:04:19;9.87;;;4.07;;
24801;SDS011;12898;50.520;12.152;2022-12-07T12:07:46;10.13;;;3.90;;
24801;SDS011;12898;50.520;12.152;2022-12-07T12:10:25;6.73;;;2.90;;
24801;SDS011;12898;50.520;12.152;2022-12-07T12:23:09;5.23;;;2.90;;
24801;SDS011;12898;50.520;12.152;2022-12-07T12:31:14;6.97;;;2.83;;
24801;SDS011;12898;50.520;12.152;2022-12-07T12:33:47;4.57;;;2.50;;
24801;SDS011;12898;50.520;12.152;2022-12-07T12:46:55;5.93;;;3.33;;
24801;SDS011;12898;50.520;12.152;2022-12-07T12:49:31;7.70;;;3.10;;
24801;SDS011;12898;50.520;12.152;2022-12-07T12:57:35;5.57;;;2.93;;
24801;SDS011;12898;50.520;12.152;2022-12-07T13:00:21;6.47;;;2.87;;
24801;SDS011;12898;50.520;12.152;2022-12-07T13:05:21;9.53;;;3.17;;
24801;SDS011;12898;50.520;12.152;2022-12-07T13:21:02;6.53;;;3.33;;
24801;SDS011;12898;50.520;12.152;2022-12-07T13:23:38;6.40;;;3.00;;
24801;SDS011;12898;50.520;12.152;2022-12-07T13:29:17;5.23;;;2.83;;
24801;SDS011;12898;50.520;12.152;2022-12-07T13:31:51;5.17;;;3.07;;
24801;SDS011;12898;50.520;12.152;2022-12-07T13:34:32;7.23;;;3.50;;
24801;SDS011;12898;50.520;12.152;2022-12-07T13:37:18;7.37;;;3.77;;
24801;SDS011;12898;50.520;12.152;2022-12-07T13:42:27;6.33;;;3.63;;
24801;SDS011;12898;50.520;12.152;2022-12-07T13:44:59;8.30;;;3.37;;
24801;SDS011;12898;50.520;12.152;2022-12-07T13:47:49;5.10;;;2.63;;
24801;SDS011;12898;50.520;12.152;2022-12-07T13:50:29;4.97;;;2.40;;
24801;SDS011;12898;50.520;12.152;2022-12-07T13:52:57;4.63;;;2.73;;
24801;SDS011;12898;50.520;12.152;2022-12-07T13:55:24;4.60;;;2.20;;
24801;SDS011;12898;50.520;12.152;2022-12-07T13:57:51;5.57;;;2.27;;
24801;SDS011;12898;50.520;12.152;2022-12-07T14:03:00;6.43;;;2.50;;
24801;SDS011;12898;50.520;12.152;2022-12-07T14:05:38;5.03;;;2.20;;
24801;SDS011;12898;50.520;12.152;2022-12-07T14:10:41;6.20;;;2.73;;
24801;SDS011;12898;50.520;12.152;2022-12-07T14:18:54;5.47;;;2.77;;
24801;SDS011;12898;50.520;12.152;2022-12-07T14:21:25;6.77;;;3.33;;
24801;SDS011;12898;50.520;12.152;2022-12-07T14:26:45;4.67;;;2.50;;
24801;SDS011;12898;50.520;12.152;2022-12-07T14:29:21;6.73;;;2.87;;
24801;SDS011;12898;50.520;12.152;2022-12-07T14:31:53;6.17;;;2.30;;
24801;SDS011;12898;50.520;12.152;2022-12-07T14:34:20;6.07;;;2.53;;
24801;SDS011;12898;50.520;12.152;2022-12-07T14:36:47;6.90;;;2.73;;
24801;SDS011;12898;50.520;12.152;2022-12-07T14:39:12;6.43;;;2.80;;
24801;SDS011;12898;50.520;12.152;2022-12-07T14:41:38;10.40;;;3.47;;
24801;SDS011;12898;50.520;12.152;2022-12-07T14:44:16;5.30;;;2.77;;
24801;SDS011;12898;50.520;12.152;2022-12-07T14:46:47;7.57;;;2.97;;
24801;SDS011;12898;50.520;12.152;2022-12-07T14:49:16;5.93;;;2.60;;
24801;SDS011;12898;50.520;12.152;2022-12-07T14:51:44;6.03;;;3.13;;
24801;SDS011;12898;50.520;12.152;2022-12-07T14:54:16;13.33;;;5.30;;
24801;SDS011;12898;50.520;12.152;2022-12-07T14:56:44;3.53;;;2.17;;
24801;SDS011;12898;50.520;12.152;2022-12-07T14:59:10;5.90;;;2.73;;
24801;SDS011;12898;50.520;12.152;2022-12-07T15:01:37;7.33;;;2.90;;
24801;SDS011;12898;50.520;12.152;2022-12-07T15:04:03;4.07;;;2.50;;
24801;SDS011;12898;50.520;12.152;2022-12-07T15:06:28;8.07;;;4.20;;
24801;SDS011;12898;50.520;12.152;2022-12-07T15:08:54;5.87;;;3.13;;
24801;SDS011;12898;50.520;12.152;2022-12-07T15:11:20;6.03;;;2.27;;
24801;SDS011;12898;50.520;12.152;2022-12-07T15:13:46;7.30;;;2.90;;
24801;SDS011;12898;50.520;12.152;2022-12-07T15:16:30;6.07;;;2.90;;
24801;SDS011;12898;50.520;12.152;2022-12-07T15:18:56;4.03;;;2.50;;
24801;SDS011;12898;50.520;12.152;2022-12-07T15:21:22;10.53;;;2.80;;
24801;SDS011;12898;50.520;12.152;2022-12-07T15:23:47;6.50;;;2.70;;
24801;SDS011;12898;50.520;12.152;2022-12-07T15:26:13;5.03;;;2.57;;
24801;SDS011;12898;50.520;12.152;2022-12-07T15:28:39;4.03;;;2.40;;
24801;SDS011;12898;50.520;12.152;2022-12-07T15:31:12;5.83;;;2.40;;
24801;SDS011;12898;50.520;12.152;2022-12-07T15:33:42;5.13;;;2.40;;
24801;SDS011;12898;50.520;12.152;2022-12-07T15:36:08;6.13;;;3.10;;
24801;SDS011;12898;50.520;12.152;2022-12-07T15:38:53;6.17;;;2.93;;
24801;SDS011;12898;50.520;12.152;2022-12-07T15:41:20;7.73;;;3.50;;
24801;SDS011;12898;50.520;12.152;2022-12-07T15:43:46;7.60;;;3.20;;
24801;SDS011;12898;50.520;12.152;2022-12-07T15:46:31;7.10;;;3.37;;
24801;SDS011;12898;50.520;12.152;2022-12-07T15:48:59;9.53;;;4.00;;
24801;SDS011;12898;50.520;12.152;2022-12-07T15:51:25;7.57;;;3.30;;
24801;SDS011;12898;50.520;12.152;2022-12-07T15:53:52;6.80;;;3.27;;
24801;SDS011;12898;50.520;12.152;2022-12-07T15:56:18;8.17;;;3.40;;
24801;SDS011;12898;50.520;12.152;2022-12-07T15:58:44;8.37;;;3.07;;
24801;SDS011;12898;50.520;12.152;2022-12-07T16:01:10;7.70;;;2.77;;
24801;SDS011;12898;50.520;12.152;2022-12-07T16:03:41;9.73;;;2.83;;
24801;SDS011;12898;50.520;12.152;2022-12-07T16:06:07;8.43;;;4.00;;
24801;SDS011;12898;50.520;12.152;2022-12-07T16:08:33;5.97;;;3.13;;
24801;SDS011;12898;50.520;12.152;2022-12-07T16:10:59;9.40;;;3.47;;
24801;SDS011;12898;50.520;12.152;2022-12-07T16:13:24;6.47;;;2.97;;
24801;SDS011;12898;50.520;12.152;2022-12-07T16:15:50;5.07;;;2.50;;
24801;SDS011;12898;50.520;12.152;2022-12-07T16:18:16;5.47;;;2.70;;
24801;SDS011;12898;50.520;12.152;2022-12-07T16:20:41;7.13;;;3.40;;
24801;SDS011;12898;50.520;12.152;2022-12-07T16:23:07;6.93;;;3.10;;
24801;SDS011;12898;50.520;12.152;2022-12-07T16:25:33;7.93;;;3.27;;
24801;SDS011;12898;50.520;12.152;2022-12-07T16:28:01;7.50;;;3.23;;
24801;SDS011;12898;50.520;12.152;2022-12-07T16:30:27;7.73;;;3.63;;
24801;SDS011;12898;50.520;12.152;2022-12-07T16:32:52;6.73;;;3.40;;
24801;SDS011;12898;50.520;12.152;2022-12-07T16:35:18;4.73;;;3.00;;
24801;SDS011;12898;50.520;12.152;2022-12-07T16:37:44;7.50;;;3.40;;
24801;SDS011;12898;50.520;12.152;2022-12-07T16:40:10;7.93;;;3.87;;
24801;SDS011;12898;50.520;12.152;2022-12-07T16:42:36;8.33;;;3.57;;
24801;SDS011;12898;50.520;12.152;2022-12-07T16:45:02;7.57;;;4.07;;
24801;SDS011;12898;50.520;12.152;2022-12-07T16:47:28;10.40;;;4.43;;
24801;SDS011;12898;50.520;12.152;2022-12-07T16:49:54;9.93;;;4.87;;
24801;SDS011;12898;50.520;12.152;2022-12-07T16:52:20;8.40;;;4.43;;
24801;SDS011;12898;50.520;12.152;2022-12-07T16:54:47;11.70;;;5.27;;
24801;SDS011;12898;50.520;12.152;2022-12-07T16:57:14;10.00;;;5.00;;
24801;SDS011;12898;50.520;12.152;2022-12-07T16:59:42;11.13;;;4.83;;
24801;SDS011;12898;50.520;12.152;2022-12-07T17:02:09;12.60;;;6.30;;
24801;SDS011;12898;50.520;12.152;2022-12-07T17:04:36;13.20;;;5.47;;
24801;SDS011;12898;50.520;12.152;2022-12-07T17:07:04;10.13;;;4.83;;
24801;SDS011;12898;50.520;12.152;2022-12-07T17:09:31;9.30;;;5.00;;
24801;SDS011;12898;50.520;12.152;2022-12-07T17:11:57;10.27;;;4.70;;
24801;SDS011;12898;50.520;12.152;2022-12-07T17:14:22;7.60;;;4.07;;
24801;SDS011;12898;50.520;12.152;2022-12-07T17:17:07;11.33;;;4.63;;